Time;durP1;ratioP1;P1;durP2;ratioP2;P2;SDS_P1;SDS_P2;PMS_P1;PMS_P2;Temp;Humidity;BMP_temperature;BMP_pressure;BME280_temperature;BME280_humidity;BME280_pressure;Samples;Min_cycle;Max_cycle;Signal;HPM_P1;HPM_P2
2022/08/24 00:00:52;;;;;;;3.05;2.60;;;;;;;20.19;44.15;95814.47;5024822;28;20189;-82
2022/08/24 00:03:17;;;;;;;3.00;2.70;;;;;;;20.19;44.24;95812.63;5039071;28;20251;-82
2022/08/24 00:05:42;;;;;;;4.68;2.60;;;;;;;20.13;44.52;95817.88;5038091;28;20263;-83
2022/08/24 00:08:08;;;;;;;3.30;2.40;;;;;;;20.16;44.35;95814.88;5049014;28;20665;-82
2022/08/24 00:10:33;;;;;;;3.78;2.55;;;;;;;20.11;44.41;95814.66;5028211;28;20185;-83
2022/08/24 00:12:58;;;;;;;3.25;2.60;;;;;;;20.16;44.46;95815.69;5032845;28;20193;-82
2022/08/24 00:15:24;;;;;;;3.33;3.03;;;;;;;20.13;44.51;95815.25;5031222;28;20201;-82
2022/08/24 00:17:49;;;;;;;2.92;2.72;;;;;;;20.22;44.41;95814.06;5043772;28;20670;-83
2022/08/24 00:20:15;;;;;;;5.07;3.58;;;;;;;20.26;44.43;95808.19;5047189;28;20214;-82
2022/08/24 00:22:40;;;;;;;3.83;2.80;;;;;;;20.21;44.20;95807.16;5024118;28;20185;-82
2022/08/24 00:25:07;;;;;;;3.83;2.85;;;;;;;20.20;44.47;95811.63;5029712;28;20197;-83
2022/08/24 00:27:33;;;;;;;3.50;2.80;;;;;;;20.14;44.30;95814.25;5024661;28;20186;-82
2022/08/24 00:29:58;;;;;;;4.05;2.55;;;;;;;20.06;44.48;95810.81;5030859;28;20189;-83
2022/08/24 00:32:23;;;;;;;5.70;2.47;;;;;;;19.99;44.84;95812.59;5038527;28;20198;-82
2022/08/24 00:34:49;;;;;;;4.07;3.08;;;;;;;20.04;44.72;95807.53;5035460;28;20212;-83
2022/08/24 00:37:14;;;;;;;5.95;2.97;;;;;;;19.97;44.97;95806.72;5044306;28;20196;-82
2022/08/24 00:39:39;;;;;;;3.67;2.47;;;;;;;19.84;45.26;95796.13;5027436;28;20583;-83
2022/08/24 00:42:05;;;;;;;5.03;3.25;;;;;;;19.90;45.03;95786.63;5034350;28;20276;-83
2022/08/24 00:44:30;;;;;;;5.03;2.80;;;;;;;19.97;45.32;95790.91;5044402;28;20312;-83
2022/08/24 00:47:01;;;;;;;5.60;2.58;;;;;;;19.96;45.06;95793.72;5025852;28;20185;-83
2022/08/24 00:49:38;;;;;;;6.57;2.97;;;;;;;19.84;45.41;95795.34;5042382;28;20182;-83
2022/08/24 00:52:20;;;;;;;3.22;2.80;;;;;;;19.83;45.53;95793.72;5044101;28;20188;-83
2022/08/24 00:54:59;;;;;;;4.38;3.10;;;;;;;19.82;45.73;95795.53;5044671;28;20173;-83
2022/08/24 00:57:28;;;;;;;2.85;2.58;;;;;;;19.78;45.68;95783.75;5041351;28;20208;-83
2022/08/24 00:59:59;;;;;;;3.60;2.53;;;;;;;19.83;45.27;95791.06;5014183;28;20195;-83
2022/08/24 01:02:28;;;;;;;7.47;2.78;;;;;;;19.77;45.42;95784.75;5042625;28;20207;-83
2022/08/24 01:04:57;;;;;;;2.92;2.63;;;;;;;19.69;45.82;95792.84;5035986;28;20688;-83
2022/08/24 01:07:25;;;;;;;3.30;2.70;;;;;;;19.64;46.49;95795.28;5026446;28;20186;-83
2022/08/24 01:09:51;;;;;;;4.65;2.80;;;;;;;19.71;46.19;95790.84;5027276;28;20565;-83
2022/08/24 01:12:17;;;;;;;3.55;2.50;;;;;;;19.74;46.00;95788.63;5041256;28;20777;-83
2022/08/24 01:14:42;;;;;;;4.00;2.83;;;;;;;19.71;46.15;95785.59;5042553;28;20177;-82
2022/08/24 01:19:54;;;;;;;3.67;2.85;;;;;;;19.68;46.12;95791.22;5046728;28;20308;-82
2022/08/24 01:22:46;;;;;;;3.05;2.58;;;;;;;19.72;46.18;95789.84;5026502;28;20189;-83
2022/08/24 01:25:12;;;;;;;3.05;2.67;;;;;;;19.63;46.49;95793.66;5040274;28;20597;-82
2022/08/24 01:27:38;;;;;;;3.60;2.80;;;;;;;19.50;46.84;95787.28;5060341;28;20181;-83
2022/08/24 01:30:07;;;;;;;3.47;2.80;;;;;;;19.49;46.69;95795.38;5034469;28;20213;-84
2022/08/24 01:32:33;;;;;;;3.13;2.38;;;;;;;19.48;46.58;95794.56;5044585;28;20221;-84
2022/08/24 01:34:58;;;;;;;3.83;2.45;;;;;;;19.47;46.85;95794.78;5033744;28;20240;-83
2022/08/24 01:37:23;;;;;;;3.85;2.83;;;;;;;19.44;46.82;95801.25;5028132;28;20700;-84
2022/08/24 01:39:51;;;;;;;7.75;3.83;;;;;;;19.41;47.23;95798.19;5043546;28;20999;-83
2022/08/24 01:42:17;;;;;;;5.70;2.60;;;;;;;19.40;47.22;95797.38;5045041;28;20268;-83
2022/08/24 01:44:44;;;;;;;3.15;2.60;;;;;;;19.35;47.20;95797.16;5040520;28;20281;-84
2022/08/24 01:47:10;;;;;;;5.40;2.70;;;;;;;19.31;47.80;95798.56;5029482;28;20166;-82
2022/08/24 01:49:38;;;;;;;6.85;2.95;;;;;;;19.26;48.05;95793.09;5028471;28;20193;-83
2022/08/24 01:52:05;;;;;;;4.20;3.00;;;;;;;19.22;48.00;95794.47;5029958;28;20711;-83
2022/08/24 01:54:32;;;;;;;4.85;2.75;;;;;;;19.17;47.78;95788.97;5049227;28;20657;-83
2022/08/24 01:56:58;;;;;;;4.20;2.70;;;;;;;19.17;48.22;95799.47;5046874;28;20724;-84
2022/08/24 01:59:24;;;;;;;5.47;2.67;;;;;;;19.18;48.27;95787.97;5030860;28;20189;-82
2022/08/24 02:01:54;;;;;;;5.60;2.75;;;;;;;19.19;48.18;95794.88;5030454;28;20649;-83
2022/08/24 02:04:19;;;;;;;4.47;2.85;;;;;;;19.10;48.63;95791.56;5047615;28;20181;-83
2022/08/24 02:06:44;;;;;;;3.00;2.78;;;;;;;19.10;48.77;95798.66;5035008;28;20197;-81
2022/08/24 02:09:11;;;;;;;3.28;2.58;;;;;;;19.09;48.67;95791.78;5028713;28;20196;-82
2022/08/24 02:11:37;;;;;;;3.42;2.53;;;;;;;19.10;48.52;95794.22;5033850;28;20177;-83
2022/08/24 02:14:03;;;;;;;3.20;2.83;;;;;;;19.06;48.40;95792.16;5037234;28;20731;-82
2022/08/24 02:16:28;;;;;;;4.30;2.95;;;;;;;19.04;48.92;95792.34;5033236;28;20355;-82
2022/08/24 02:18:53;;;;;;;3.30;3.00;;;;;;;19.12;48.68;95799.28;5038676;28;20659;-82
2022/08/24 02:21:19;;;;;;;3.97;2.83;;;;;;;19.06;48.73;95800.03;5033944;28;20185;-82
2022/08/24 02:23:44;;;;;;;3.70;2.67;;;;;;;19.09;48.57;95797.84;5047681;28;20196;-84
2022/08/24 02:26:10;;;;;;;5.63;3.33;;;;;;;19.10;48.47;95801.28;5049254;28;20288;-83
2022/08/24 02:28:36;;;;;;;3.75;2.90;;;;;;;19.06;48.60;95803.47;5031392;28;20213;-83
2022/08/24 02:31:04;;;;;;;5.80;2.80;;;;;;;19.09;48.75;95797.03;5048214;28;20193;-83
2022/08/24 02:33:30;;;;;;;3.28;2.63;;;;;;;19.06;48.78;95802.66;5046834;28;20273;-83
2022/08/24 02:35:55;;;;;;;3.25;2.60;;;;;;;19.03;48.66;95803.06;5028036;28;20210;-82
2022/08/24 02:38:21;;;;;;;4.35;2.60;;;;;;;19.09;48.20;95803.13;5032545;28;20565;-83
2022/08/24 02:40:46;;;;;;;3.55;3.03;;;;;;;19.08;48.57;95800.66;5028391;28;20243;-84
2022/08/24 02:43:12;;;;;;;6.70;2.88;;;;;;;19.10;48.08;95796.84;5047335;28;20217;-83
2022/08/24 02:45:42;;;;;;;4.10;2.90;;;;;;;19.08;48.40;95796.22;5030018;28;20197;-83
2022/08/24 02:48:09;;;;;;;3.60;2.92;;;;;;;19.01;48.33;95797.19;5047463;28;20261;-84
2022/08/24 02:50:42;;;;;;;3.92;2.63;;;;;;;19.00;48.35;95796.38;5047981;28;20177;-84
2022/08/24 02:53:09;;;;;;;3.53;2.50;;;;;;;18.98;48.31;95794.94;5037608;28;20234;-82
2022/08/24 02:55:34;;;;;;;8.07;2.97;;;;;;;18.95;48.82;95793.50;5024421;28;20208;-84
2022/08/24 02:58:00;;;;;;;5.60;2.63;;;;;;;18.95;48.49;95798.78;5061763;28;20666;-84
2022/08/24 03:00:26;;;;;;;3.15;2.63;;;;;;;18.95;48.65;95796.94;5029077;28;20238;-84
2022/08/24 03:02:53;;;;;;;3.50;2.40;;;;;;;18.99;48.31;95799.19;5047783;28;20181;-82
2022/08/24 03:05:19;;;;;;;4.43;2.63;;;;;;;19.04;48.20;95794.16;5031699;28;20260;-82
2022/08/24 03:07:44;;;;;;;2.92;2.63;;;;;;;18.99;48.10;95796.56;5032320;28;20231;-83
2022/08/24 03:10:10;;;;;;;5.32;2.70;;;;;;;18.94;48.56;95792.69;5026293;28;20241;-84
2022/08/24 03:12:35;;;;;;;3.60;2.83;;;;;;;18.90;48.46;95796.69;5030031;28;20220;-84
2022/08/24 03:15:02;;;;;;;4.47;2.72;;;;;;;18.89;48.67;95797.72;5028595;28;20217;-82
2022/08/24 03:17:32;;;;;;;3.28;2.70;;;;;;;18.89;48.47;95797.72;5029777;28;20200;-83
2022/08/24 03:19:59;;;;;;;4.18;2.72;;;;;;;18.85;48.87;95796.47;5029689;28;20189;-83
2022/08/24 03:22:24;;;;;;;4.15;2.80;;;;;;;18.80;48.67;95792.78;5036454;28;20185;-84
2022/08/24 03:24:49;;;;;;;3.05;2.75;;;;;;;18.75;49.03;95793.38;5044799;28;20205;-84
2022/08/24 03:27:14;;;;;;;4.30;2.90;;;;;;;18.69;49.04;95796.78;5034766;28;20560;-83
2022/08/24 03:29:43;;;;;;;3.88;3.05;;;;;;;18.67;48.97;95793.53;5066975;28;20555;-84
2022/08/24 03:32:08;;;;;;;4.55;2.72;;;;;;;18.64;49.17;95788.59;5024657;28;20206;-82
2022/08/24 03:34:33;;;;;;;5.10;3.00;;;;;;;18.62;48.98;95790.63;5046479;28;20661;-82
2022/08/24 03:36:59;;;;;;;2.42;2.22;;;;;;;18.60;49.15;95797.91;5027155;28;20200;-83
2022/08/24 03:39:24;;;;;;;3.75;2.83;;;;;;;18.59;49.42;95793.63;5034474;28;20190;-84
2022/08/24 03:41:49;;;;;;;3.72;2.58;;;;;;;18.51;49.35;95788.53;5047128;28;20220;-84
2022/08/24 03:44:15;;;;;;;3.10;2.80;;;;;;;18.44;49.44;95792.91;5031187;28;20185;-84
2022/08/24 03:46:40;;;;;;;5.60;2.78;;;;;;;18.37;50.15;95791.03;5037321;28;20201;-83
2022/08/24 03:49:07;;;;;;;4.68;2.63;;;;;;;18.32;50.21;95788.16;5044390;28;20189;-83
2022/08/24 03:51:34;;;;;;;4.82;2.88;;;;;;;18.27;49.87;95792.34;5043019;28;20658;-82
2022/08/24 03:54:00;;;;;;;2.80;2.55;;;;;;;18.25;50.12;95792.56;5046343;28;20193;-84
2022/08/24 03:56:26;;;;;;;5.50;2.72;;;;;;;18.27;50.13;95795.00;5032330;28;20213;-82
2022/08/24 03:58:52;;;;;;;3.72;2.78;;;;;;;18.27;49.96;95792.34;5061917;28;20194;-82
2022/08/24 04:01:18;;;;;;;3.00;2.58;;;;;;;18.28;50.08;95796.63;5040887;28;20184;-83
2022/08/24 04:03:44;;;;;;;4.28;3.08;;;;;;;18.30;49.75;95803.31;5048851;28;20185;-84
2022/08/24 04:06:11;;;;;;;4.50;2.67;;;;;;;18.32;49.80;95803.13;5037607;28;20193;-83
2022/08/24 04:08:36;;;;;;;4.85;2.85;;;;;;;18.29;49.81;95798.25;5029985;28;20186;-83
2022/08/24 04:11:02;;;;;;;4.10;2.90;;;;;;;18.28;49.88;95804.50;5034252;28;20185;-83
2022/08/24 04:13:32;;;;;;;3.90;2.97;;;;;;;18.23;50.30;95801.63;5080876;28;20180;-83
2022/08/24 04:16:09;;;;;;;3.28;2.97;;;;;;;18.14;51.18;95808.84;5031592;28;20193;-83
2022/08/24 04:18:34;;;;;;;4.68;3.13;;;;;;;18.06;51.68;95807.16;5047995;28;20173;-82
2022/08/24 04:20:59;;;;;;;4.85;3.50;;;;;;;18.05;52.13;95809.97;5060185;28;20181;-84
2022/08/24 04:23:25;;;;;;;3.45;2.72;;;;;;;17.94;52.35;95808.66;5044557;28;20186;-84
2022/08/24 04:25:50;;;;;;;3.65;3.30;;;;;;;17.86;52.37;95805.31;5028613;28;20267;-85
2022/08/24 04:28:18;;;;;;;3.67;2.90;;;;;;;17.99;52.11;95800.19;5045381;28;20182;-85
2022/08/24 04:30:49;;;;;;;3.50;3.20;;;;;;;18.00;51.97;95809.69;5025274;28;20173;-85
2022/08/24 04:33:14;;;;;;;4.32;3.30;;;;;;;18.03;52.03;95809.34;5026839;28;20181;-83
2022/08/24 04:35:47;;;;;;;3.45;3.15;;;;;;;18.05;51.70;95809.97;5026731;28;20260;-84
2022/08/24 04:38:14;;;;;;;3.63;2.80;;;;;;;18.06;51.98;95806.34;5028514;28;20190;-83
2022/08/24 04:40:41;;;;;;;4.07;3.25;;;;;;;18.09;51.87;95806.75;5043117;28;20673;-83
2022/08/24 04:43:07;;;;;;;3.42;3.08;;;;;;;18.10;51.81;95807.56;5029066;28;20653;-83
2022/08/24 04:45:34;;;;;;;3.65;3.10;;;;;;;18.21;51.60;95814.16;5045818;28;20212;-84
2022/08/24 04:47:59;;;;;;;4.18;3.10;;;;;;;18.28;51.42;95815.00;5027098;28;20726;-83
2022/08/24 04:50:25;;;;;;;3.83;2.90;;;;;;;18.36;51.37;95818.31;5029943;28;20190;-83
2022/08/24 04:52:53;;;;;;;4.07;3.10;;;;;;;18.44;51.10;95822.63;5033733;28;20181;-82
2022/08/24 04:55:20;;;;;;;4.65;3.33;;;;;;;18.51;50.93;95820.06;5059457;28;20210;-86
2022/08/24 04:57:46;;;;;;;4.35;3.00;;;;;;;18.64;50.80;95825.44;5033700;28;20190;-83
2022/08/24 05:00:30;;;;;;;3.55;2.53;;;;;;;19.90;47.92;95823.53;5052887;28;20185;-87
2022/08/24 05:02:56;;;;;;;3.08;2.75;;;;;;;21.24;44.47;95829.47;5063359;28;20193;-80
2022/08/24 05:05:21;;;;;;;3.10;2.47;;;;;;;22.44;42.16;95835.03;5068964;28;20213;-82
2022/08/24 05:07:46;;;;;;;5.13;2.45;;;;;;;22.48;41.19;95830.97;5065921;28;20188;-80
2022/08/24 05:10:12;;;;;;;3.25;2.40;;;;;;;22.18;41.26;95836.06;5052076;28;20195;-81
2022/08/24 05:12:37;;;;;;;4.65;2.63;;;;;;;21.99;41.00;95838.53;5024600;28;20185;-84
2022/08/24 05:15:04;;;;;;;3.58;2.58;;;;;;;21.19;44.02;95832.72;5064659;28;20258;-83
2022/08/24 05:17:29;;;;;;;4.47;2.33;;;;;;;21.14;43.75;95834.38;5061278;28;20205;-83
2022/08/24 05:19:56;;;;;;;3.22;2.60;;;;;;;20.96;44.36;95836.84;5024556;28;20251;-83
2022/08/24 05:22:21;;;;;;;4.80;2.88;;;;;;;20.74;45.10;95830.94;5035773;28;20264;-82
2022/08/24 05:24:46;;;;;;;2.78;2.58;;;;;;;20.63;45.66;95838.47;5031201;28;20632;-83
2022/08/24 05:27:12;;;;;;;5.65;2.92;;;;;;;20.50;46.46;95835.03;5048293;28;20242;-82
2022/08/24 05:29:37;;;;;;;5.88;2.88;;;;;;;20.42;47.36;95835.19;5032486;28;20173;-82
2022/08/24 05:32:02;;;;;;;3.13;2.80;;;;;;;20.49;47.30;95838.66;5037087;28;20181;-82
2022/08/24 05:34:28;;;;;;;4.53;2.90;;;;;;;20.50;47.59;95842.94;5038593;28;20601;-79
2022/08/24 05:36:53;;;;;;;2.80;2.60;;;;;;;20.71;47.02;95844.56;5028615;28;20197;-80
2022/08/24 05:39:18;;;;;;;2.90;2.60;;;;;;;20.77;46.78;95843.75;5044347;28;20192;-80
2022/08/24 05:41:45;;;;;;;3.67;2.80;;;;;;;20.76;47.40;95857.94;5028299;28;20650;-79
2022/08/24 05:44:12;;;;;;;4.85;2.75;;;;;;;21.09;46.41;95856.09;5052009;28;20189;-81
2022/08/24 05:46:38;;;;;;;2.75;2.55;;;;;;;21.20;45.64;95857.28;5019443;28;20742;-84
2022/08/24 05:49:03;;;;;;;4.72;3.13;;;;;;;21.27;45.54;95859.97;5029784;28;20189;-84
2022/08/24 05:51:29;;;;;;;3.45;2.78;;;;;;;21.29;45.29;95852.63;5040623;28;20177;-84
2022/08/24 05:53:56;;;;;;;3.70;2.92;;;;;;;21.24;46.39;95858.53;5048494;28;20204;-82
2022/08/24 05:56:21;;;;;;;2.97;2.55;;;;;;;21.45;46.36;95857.47;5032079;28;20576;-83
2022/08/24 05:58:46;;;;;;;3.65;2.70;;;;;;;21.50;46.16;95860.31;5047720;28;20195;-82
2022/08/24 06:01:19;;;;;;;3.67;2.60;;;;;;;21.67;45.63;95861.47;5034204;28;20186;-83
2022/08/24 06:03:45;;;;;;;3.92;2.60;;;;;;;21.80;44.85;95862.44;5020665;28;20180;-84
2022/08/24 06:06:12;;;;;;;4.25;2.80;;;;;;;21.88;44.97;95862.19;5044989;28;20198;-82
2022/08/24 06:08:40;;;;;;;4.15;2.70;;;;;;;21.89;45.16;95874.41;5035496;28;20242;-83
2022/08/24 06:11:05;;;;;;;2.63;2.10;;;;;;;21.86;45.58;95861.59;5045714;28;20185;-84
2022/08/24 06:13:31;;;;;;;4.75;3.40;;;;;;;21.84;45.90;95866.31;5025117;28;20654;-84
2022/08/24 06:16:08;;;;;;;3.10;2.78;;;;;;;21.95;44.56;95863.78;5034799;28;20206;-83
2022/08/24 06:18:34;;;;;;;3.00;2.60;;;;;;;22.09;43.54;95863.78;5031482;28;20201;-83
2022/08/24 06:21:07;;;;;;;2.90;2.70;;;;;;;22.21;42.84;95865.53;5027384;28;20667;-84
2022/08/24 06:23:34;;;;;;;3.92;2.50;;;;;;;22.26;42.54;95859.59;5019047;28;20609;-84
2022/08/24 06:28:43;;;;;;;4.13;2.75;;;;;;;22.38;41.48;95857.09;5031904;28;20213;-85
2022/08/24 06:31:09;;;;;;;3.17;2.70;;;;;;;22.49;41.36;95864.34;5033228;28;20214;-84
2022/08/24 06:33:34;;;;;;;3.55;2.63;;;;;;;22.69;40.84;95858.88;5037219;28;20173;-83
2022/08/24 06:36:00;;;;;;;4.00;2.30;;;;;;;22.53;41.38;95862.91;5021869;28;20217;-84
2022/08/24 06:38:25;;;;;;;3.08;2.83;;;;;;;22.67;41.56;95866.25;5035721;28;20551;-84
2022/08/24 06:40:51;;;;;;;4.85;2.83;;;;;;;22.72;42.36;95867.22;5044645;28;20688;-84
2022/08/24 06:43:16;;;;;;;4.10;2.50;;;;;;;22.79;42.09;95864.50;5017978;28;20187;-81
2022/08/24 06:45:42;;;;;;;4.85;2.45;;;;;;;22.81;41.98;95858.00;5018143;28;20727;-83
2022/08/24 06:48:07;;;;;;;3.33;2.72;;;;;;;23.03;40.86;95866.38;5029948;28;20547;-84
2022/08/24 06:50:33;;;;;;;4.75;2.70;;;;;;;23.03;40.63;95865.56;5029380;28;20188;-85
2022/08/24 06:53:00;;;;;;;3.28;2.78;;;;;;;23.11;41.09;95862.63;5029810;28;20179;-84
2022/08/24 06:55:26;;;;;;;3.10;2.47;;;;;;;23.20;40.97;95876.41;5041685;28;20211;-85
2022/08/24 06:57:51;;;;;;;2.53;2.33;;;;;;;23.27;40.56;95875.31;5014202;28;20588;-85
2022/08/24 07:00:16;;;;;;;3.38;2.60;;;;;;;23.60;39.32;95876.88;5016697;28;20198;-84
2022/08/24 07:02:42;;;;;;;3.17;2.65;;;;;;;23.74;38.85;95878.31;5034919;28;20190;-84
2022/08/24 07:05:07;;;;;;;5.28;3.05;;;;;;;23.69;39.52;95888.78;5016694;28;20201;-84
2022/08/24 07:07:33;;;;;;;3.70;2.90;;;;;;;23.74;39.32;95878.31;5034015;28;20185;-85
2022/08/24 07:09:59;;;;;;;3.92;3.35;;;;;;;23.96;38.96;95887.44;5021824;28;20194;-84
2022/08/24 07:12:25;;;;;;;4.03;2.83;;;;;;;24.09;39.09;95880.34;5036722;28;20194;-84
2022/08/24 07:14:51;;;;;;;3.45;2.70;;;;;;;24.10;39.11;95882.78;5039768;28;20565;-84
2022/08/24 07:17:16;;;;;;;4.25;2.67;;;;;;;24.32;38.50;95884.97;5030516;28;20296;-84
2022/08/24 07:19:42;;;;;;;2.53;2.35;;;;;;;24.49;37.69;95883.31;5034037;28;20186;-85
2022/08/24 07:22:13;;;;;;;3.05;2.63;;;;;;;24.43;37.80;95887.66;5029584;28;20195;-86
2022/08/24 07:32:24;;;;;;;4.43;3.45;;;;;;;24.36;37.89;95899.41;5232615;22;20233;-85
2022/08/24 07:34:52;;;;;;;3.92;2.65;;;;;;;24.39;37.76;95891.00;5042166;28;20712;-85
2022/08/24 07:37:17;;;;;;;6.85;2.63;;;;;;;24.26;37.59;95897.25;5041642;28;20209;-85
2022/08/24 07:39:43;;;;;;;4.93;2.72;;;;;;;24.26;36.73;95903.38;5030182;28;20668;-86
2022/08/24 07:42:08;;;;;;;5.10;2.88;;;;;;;24.49;37.69;95900.03;5038983;28;20648;-86
2022/08/24 07:44:34;;;;;;;3.90;3.00;;;;;;;24.46;37.30;95905.78;5042116;28;20196;-85
2022/08/24 07:47:00;;;;;;;5.70;2.75;;;;;;;24.37;37.46;95901.03;5040048;28;20185;-85
2022/08/24 07:49:25;;;;;;;3.20;2.72;;;;;;;24.33;37.24;95908.63;5027827;28;20204;-86
2022/08/24 07:51:52;;;;;;;3.92;2.60;;;;;;;24.21;37.89;95907.75;5042579;28;20246;-86
2022/08/24 07:54:18;;;;;;;3.17;2.70;;;;;;;24.50;37.80;95920.25;5049268;28;20231;-86
2022/08/24 07:56:44;;;;;;;4.45;2.80;;;;;;;24.56;37.47;95914.03;5031985;28;20206;-85
2022/08/24 07:59:09;;;;;;;4.60;3.28;;;;;;;24.50;37.64;95916.78;5036841;28;20558;-85
2022/08/24 08:01:34;;;;;;;4.00;2.80;;;;;;;24.29;37.33;95915.38;5039397;28;20216;-86
2022/08/24 08:04:00;;;;;;;3.92;2.35;;;;;;;24.46;37.72;95919.06;5038151;28;20478;-87
2022/08/24 08:06:30;;;;;;;3.80;2.97;;;;;;;24.55;37.20;95917.69;5036441;28;20189;-86
2022/08/24 08:08:59;;;;;;;5.80;2.50;;;;;;;24.56;36.83;95918.53;5036259;28;20186;-86
2022/08/24 08:11:24;;;;;;;4.43;2.67;;;;;;;24.46;37.43;95919.06;5030676;28;20178;-86
2022/08/24 08:13:49;;;;;;;4.90;2.90;;;;;;;24.34;37.11;95914.75;5036133;28;20192;-85
2022/08/24 08:16:15;;;;;;;4.55;2.58;;;;;;;24.64;37.09;95920.03;5042845;28;20209;-86
2022/08/24 08:18:42;;;;;;;4.80;2.80;;;;;;;24.88;36.92;95911.09;5035656;28;20189;-86
2022/08/24 08:24:13;;;;;;;4.25;2.55;;;;;;;24.82;36.73;95912.81;5036198;28;20226;-85
2022/08/24 08:26:38;;;;;;;4.82;2.65;;;;;;;25.39;35.63;95913.16;5052921;28;20255;-87
2022/08/24 08:29:04;;;;;;;4.57;2.70;;;;;;;25.44;36.18;95915.09;5051714;28;20208;-82
2022/08/24 08:31:29;;;;;;;5.03;2.45;;;;;;;25.53;35.96;95921.72;5037129;28;20176;-81
2022/08/24 08:33:55;;;;;;;4.00;2.42;;;;;;;25.78;35.15;95924.13;5085198;28;20270;-81
2022/08/24 08:36:21;;;;;;;2.78;2.50;;;;;;;25.76;35.39;95922.75;5052487;28;20222;-82
2022/08/24 08:38:47;;;;;;;4.15;2.72;;;;;;;25.63;34.96;95924.59;5065545;28;20185;-81
2022/08/24 08:41:18;;;;;;;4.88;2.78;;;;;;;25.54;35.38;95915.34;5032828;28;20569;-82
2022/08/24 08:43:59;;;;;;;5.75;2.47;;;;;;;25.70;35.23;95916.47;5065126;28;20274;-82
2022/08/24 08:46:49;;;;;;;5.72;2.63;;;;;;;25.75;35.47;95915.81;5067660;28;20285;-81
2022/08/24 08:49:33;;;;;;;4.40;2.65;;;;;;;25.89;35.02;95919.84;5048598;28;20226;-80
2022/08/24 08:52:30;;;;;;;4.25;2.17;;;;;;;25.87;34.52;95919.25;5052307;28;20197;-80
2022/08/24 08:55:32;;;;;;;3.47;2.05;;;;;;;25.88;33.67;95924.31;5048652;28;20635;-81
2022/08/24 08:58:34;;;;;;;5.28;2.55;;;;;;;25.83;32.70;95921.56;5009602;28;20236;-80
2022/08/24 09:01:10;;;;;;;5.55;2.08;;;;;;;25.95;32.29;95921.53;5063486;28;20188;-81
2022/08/24 09:03:56;;;;;;;2.17;1.88;;;;;;;26.16;32.32;95926.25;5069903;28;20195;-81
2022/08/24 09:06:44;;;;;;;4.10;2.03;;;;;;;26.01;31.39;95922.47;5047212;28;20205;-80
2022/08/24 09:09:24;;;;;;;2.00;1.63;;;;;;;25.99;30.85;95928.03;5048832;28;20177;-82
2022/08/24 09:12:00;;;;;;;2.92;1.90;;;;;;;26.18;31.02;95918.03;5067265;28;20193;-81
2022/08/24 09:14:44;;;;;;;2.65;1.80;;;;;;;26.26;30.52;95913.13;5028010;28;20667;-81
2022/08/24 09:17:34;;;;;;;2.08;1.70;;;;;;;26.58;29.60;95918.00;5065523;28;20212;-82
2022/08/24 09:20:24;;;;;;;2.58;1.50;;;;;;;26.59;29.57;95921.47;5048321;28;20208;-79
2022/08/24 09:23:30;;;;;;;1.70;1.60;;;;;;;26.51;28.65;95915.50;5064049;28;20680;-84
2022/08/24 09:26:09;;;;;;;6.18;1.60;;;;;;;26.70;29.10;95923.28;4939843;29;20216;-81
2022/08/24 09:28:58;;;;;;;1.77;1.40;;;;;;;27.09;28.50;95918.91;4923858;29;20669;-83
2022/08/24 09:31:32;;;;;;;2.95;1.80;;;;;;;27.35;28.88;95920.91;4919073;29;20649;-83
2022/08/24 09:34:08;;;;;;;2.95;1.42;;;;;;;27.24;27.99;95921.00;4947346;29;20255;-83
2022/08/24 09:37:02;;;;;;;4.18;2.00;;;;;;;27.52;28.69;95922.75;4936281;29;20228;-82
2022/08/24 09:39:36;;;;;;;2.33;1.83;;;;;;;27.21;28.08;95916.97;4931281;29;20264;-80
2022/08/24 09:42:17;;;;;;;3.15;1.40;;;;;;;27.60;28.38;95917.00;4916892;29;20579;-83
2022/08/24 09:44:54;;;;;;;2.33;1.75;;;;;;;27.75;27.81;95916.44;4917219;29;20209;-82
2022/08/24 09:47:39;;;;;;;4.25;1.42;;;;;;;27.30;28.12;95925.38;4947342;29;20219;-82
2022/08/24 09:50:26;;;;;;;2.50;2.30;;;;;;;27.11;28.67;95911.47;4916509;29;20201;-83
2022/08/24 09:53:09;;;;;;;4.65;2.15;;;;;;;26.99;29.74;95913.38;4938319;29;20217;-83
2022/08/24 09:55:34;;;;;;;3.35;2.15;;;;;;;26.90;30.03;95910.31;4942244;28;20267;-81
2022/08/24 09:58:17;;;;;;;2.83;2.08;;;;;;;27.30;28.99;95917.38;5067093;28;20209;-82
2022/08/24 10:00:44;;;;;;;3.00;1.65;;;;;;;27.42;28.14;95915.41;5048865;28;20172;-82
2022/08/24 10:03:35;;;;;;;4.93;2.30;;;;;;;26.89;28.24;95918.53;5046611;28;20589;-83
2022/08/24 10:06:09;;;;;;;2.38;1.70;;;;;;;26.86;27.57;95914.50;5066632;28;20202;-82
2022/08/24 10:08:56;;;;;;;6.57;1.55;;;;;;;27.09;27.80;95914.38;5023702;28;20185;-84
2022/08/24 10:12:03;;;;;;;2.92;1.80;;;;;;;26.76;28.12;95909.78;5053182;28;20186;-84
2022/08/24 10:14:37;;;;;;;2.25;1.80;;;;;;;26.84;29.05;95903.25;4963742;28;20185;-84
2022/08/24 10:17:30;;;;;;;3.47;1.58;;;;;;;27.25;27.72;95910.09;4962360;28;20221;-83
2022/08/24 10:20:15;;;;;;;2.85;1.80;;;;;;;27.17;27.64;95907.84;4944265;29;20198;-82
2022/08/24 10:22:59;;;;;;;3.70;1.58;;;;;;;27.38;26.91;95907.09;4916083;28;20205;-79
2022/08/24 10:25:38;;;;;;;3.63;1.60;;;;;;;27.47;27.25;95909.34;4924386;29;20594;-81
2022/08/24 10:28:32;;;;;;;3.58;1.60;;;;;;;27.63;27.03;95911.97;4938589;29;20232;-82
2022/08/24 10:31:03;;;;;;;4.78;2.10;;;;;;;26.98;26.47;95906.44;4945982;29;20272;-80
2022/08/24 10:34:18;;;;;;;4.15;2.03;;;;;;;26.80;26.69;95913.59;4933577;29;20607;-81
2022/08/24 10:37:11;;;;;;;4.28;1.80;;;;;;;27.23;26.61;95898.06;4857851;29;20224;-81
2022/08/24 10:40:05;;;;;;;1.83;1.73;;;;;;;27.09;26.03;95898.38;4857947;29;20196;-80
2022/08/24 10:46:20;;;;;;;1.73;1.60;;;;;;;27.53;26.99;95895.03;4964007;28;20227;-81
2022/08/24 10:49:13;;;;;;;4.25;1.80;;;;;;;27.57;26.37;95888.97;4965605;28;20261;-82
2022/08/24 10:52:08;;;;;;;3.22;1.85;;;;;;;27.23;26.65;95896.22;4991472;28;20177;-82
2022/08/24 10:54:34;;;;;;;2.28;1.70;;;;;;;27.23;27.41;95888.22;4954835;28;20811;-82
2022/08/24 10:57:16;;;;;;;4.40;1.75;;;;;;;27.28;26.67;95892.78;4954199;28;20208;-80
2022/08/24 10:59:55;;;;;;;3.22;1.73;;;;;;;27.41;26.80;95889.81;4948895;28;20198;-81
2022/08/24 11:02:32;;;;;;;3.13;1.95;;;;;;;27.38;25.93;95893.75;4973032;28;20275;-83
2022/08/24 11:22:15;;;;;;;;;;;;;;;;;;;;;
2022/08/24 12:17:39;;;;;;;2.00;1.77;;;;;;;28.07;26.88;95879.19;4674718;22;20277;-81
2022/08/24 12:20:17;;;;;;;2.20;1.55;;;;;;;27.94;27.62;95875.88;5033781;28;20192;-82
2022/08/24 12:22:43;;;;;;;1.75;1.55;;;;;;;28.12;27.31;95865.91;5046358;28;20184;-82
2022/08/24 12:27:53;;;;;;;2.22;1.88;;;;;;;28.58;26.92;95858.41;5039751;28;20192;-83
2022/08/24 12:30:19;;;;;;;2.72;1.95;;;;;;;28.63;26.65;95858.47;5020157;28;20183;-85
2022/08/24 12:32:48;;;;;;;2.70;2.00;;;;;;;28.97;26.38;95862.50;5037967;28;20249;-81
2022/08/24 12:35:18;;;;;;;4.53;1.80;;;;;;;29.41;25.70;95850.75;5068128;27;20184;-82
2022/08/24 12:37:48;;;;;;;2.03;1.75;;;;;;;29.52;25.39;95855.16;5038663;28;20209;-82
2022/08/24 12:40:24;;;;;;;3.03;1.77;;;;;;;29.61;24.82;95857.06;5046920;28;20177;-82
2022/08/24 12:42:54;;;;;;;2.55;1.90;;;;;;;29.39;24.58;95850.22;5040263;28;20640;-82
2022/08/24 12:45:21;;;;;;;4.32;1.75;;;;;;;29.61;24.83;95854.38;5041382;28;20210;-81
2022/08/24 12:48:00;;;;;;;2.33;1.50;;;;;;;29.41;24.09;95856.91;5025676;28;20661;-81
2022/08/24 12:50:50;;;;;;;2.78;1.83;;;;;;;28.96;24.80;95865.41;5022022;28;20322;-81
2022/08/24 12:53:35;;;;;;;2.85;1.70;;;;;;;28.88;25.39;95853.28;5042551;28;20181;-80
2022/08/24 12:56:22;;;;;;;3.50;1.65;;;;;;;29.01;25.42;95844.09;5060285;28;20231;-80
2022/08/24 12:59:15;;;;;;;2.10;1.60;;;;;;;29.40;24.51;95838.44;5044302;28;20186;-80
2022/08/24 13:01:47;;;;;;;1.70;1.60;;;;;;;29.56;25.17;95837.50;5057312;28;21118;-80
2022/08/24 13:04:18;;;;;;;3.97;1.60;;;;;;;29.86;24.46;95842.16;5043803;28;20177;-80
2022/08/24 13:06:50;;;;;;;1.88;1.58;;;;;;;29.93;23.96;95833.91;5014091;28;20627;-80
2022/08/24 13:09:36;;;;;;;2.60;1.80;;;;;;;30.01;24.51;95839.53;5020676;28;20238;-81
2022/08/24 13:12:29;;;;;;;3.35;1.85;;;;;;;29.41;25.60;95834.69;5021257;28;20548;-80
2022/08/24 13:15:27;;;;;;;4.22;1.50;;;;;;;29.44;25.64;95828.84;5048603;28;20205;-81
2022/08/24 13:18:07;;;;;;;2.03;1.73;;;;;;;29.80;24.87;95837.88;5054399;28;20205;-81
2022/08/24 13:20:54;;;;;;;3.72;1.73;;;;;;;29.38;25.95;95833.34;5044992;28;20193;-80
2022/08/24 13:23:23;;;;;;;3.35;1.70;;;;;;;29.32;26.00;95826.34;5027611;28;20932;-81